sensor_id;sensor_type;location;lat;lon;timestamp;temperature;humidity
3614;DHT22;1821;50.936;6.854;2022-09-09T00:00:23;18.30;99.90
3614;DHT22;1821;50.936;6.854;2022-09-09T00:02:34;18.30;99.90
3614;DHT22;1821;50.936;6.854;2022-09-09T00:03:22;18.30;99.90
3614;DHT22;1821;50.936;6.854;2022-09-09T00:05:55;18.30;99.90
3614;DHT22;1821;50.936;6.854;2022-09-09T00:06:45;18.20;99.90
3614;DHT22;1821;50.936;6.854;2022-09-09T00:07:51;18.20;99.90
3614;DHT22;1821;50.936;6.854;2022-09-09T00:09:47;18.20;99.90
3614;DHT22;1821;50.936;6.854;2022-09-09T00:10:39;18.20;99.90
3614;DHT22;1821;50.936;6.854;2022-09-09T00:11:40;18.20;99.90
3614;DHT22;1821;50.936;6.854;2022-09-09T00:12:39;18.20;99.90
3614;DHT22;1821;50.936;6.854;2022-09-09T00:13:32;18.20;99.90
3614;DHT22;1821;50.936;6.854;2022-09-09T00:14:34;18.20;99.90
3614;DHT22;1821;50.936;6.854;2022-09-09T00:15:46;18.20;99.90
3614;DHT22;1821;50.936;6.854;2022-09-09T00:16:36;18.20;99.90
3614;DHT22;1821;50.936;6.854;2022-09-09T00:17:38;18.20;99.90
3614;DHT22;1821;50.936;6.854;2022-09-09T00:18:28;18.30;99.90
3614;DHT22;1821;50.936;6.854;2022-09-09T00:21:13;18.20;99.90
3614;DHT22;1821;50.936;6.854;2022-09-09T00:22:15;18.20;99.90
3614;DHT22;1821;50.936;6.854;2022-09-09T00:23:53;18.20;99.90
3614;DHT22;1821;50.936;6.854;2022-09-09T00:24:46;18.20;99.90
3614;DHT22;1821;50.936;6.854;2022-09-09T00:25:34;18.20;99.90
3614;DHT22;1821;50.936;6.854;2022-09-09T00:27:32;18.20;99.90
3614;DHT22;1821;50.936;6.854;2022-09-09T00:28:20;18.20;99.90
3614;DHT22;1821;50.936;6.854;2022-09-09T00:29:22;18.20;99.90
3614;DHT22;1821;50.936;6.854;2022-09-09T00:30:17;18.20;99.90
3614;DHT22;1821;50.936;6.854;2022-09-09T00:31:13;18.20;99.90
3614;DHT22;1821;50.936;6.854;2022-09-09T00:32:08;18.20;99.90
3614;DHT22;1821;50.936;6.854;2022-09-09T00:33:09;18.20;99.90
3614;DHT22;1821;50.936;6.854;2022-09-09T00:33:57;18.10;99.90
3614;DHT22;1821;50.936;6.854;2022-09-09T00:34:58;18.10;99.90
3614;DHT22;1821;50.936;6.854;2022-09-09T00:35:45;18.20;99.90
3614;DHT22;1821;50.936;6.854;2022-09-09T00:36:29;18.20;99.90
3614;DHT22;1821;50.936;6.854;2022-09-09T00:37:13;18.20;99.90
3614;DHT22;1821;50.936;6.854;2022-09-09T00:38:00;18.20;99.90
3614;DHT22;1821;50.936;6.854;2022-09-09T00:38:49;18.20;99.90
3614;DHT22;1821;50.936;6.854;2022-09-09T00:39:40;18.20;99.90
3614;DHT22;1821;50.936;6.854;2022-09-09T00:40:25;18.20;99.90
3614;DHT22;1821;50.936;6.854;2022-09-09T00:41:16;18.30;99.90
3614;DHT22;1821;50.936;6.854;2022-09-09T00:42:19;18.20;99.90
3614;DHT22;1821;50.936;6.854;2022-09-09T00:44:25;18.20;99.90
3614;DHT22;1821;50.936;6.854;2022-09-09T00:47:56;18.20;99.90
3614;DHT22;1821;50.936;6.854;2022-09-09T00:49:09;18.20;99.90
3614;DHT22;1821;50.936;6.854;2022-09-09T00:50:00;18.20;99.90
3614;DHT22;1821;50.936;6.854;2022-09-09T00:50:53;18.10;99.90
3614;DHT22;1821;50.936;6.854;2022-09-09T00:55:21;18.10;99.90
3614;DHT22;1821;50.936;6.854;2022-09-09T00:56:18;18.10;99.90
3614;DHT22;1821;50.936;6.854;2022-09-09T00:57:13;18.10;99.90
3614;DHT22;1821;50.936;6.854;2022-09-09T00:57:59;18.10;99.90
3614;DHT22;1821;50.936;6.854;2022-09-09T00:58:43;18.10;99.90
3614;DHT22;1821;50.936;6.854;2022-09-09T00:59:50;18.10;99.90
3614;DHT22;1821;50.936;6.854;2022-09-09T01:00:55;18.10;99.90
3614;DHT22;1821;50.936;6.854;2022-09-09T01:01:39;18.10;99.90
3614;DHT22;1821;50.936;6.854;2022-09-09T01:04:29;18.10;99.90
3614;DHT22;1821;50.936;6.854;2022-09-09T01:06:30;18.10;99.90
3614;DHT22;1821;50.936;6.854;2022-09-09T01:07:22;18.10;99.90
3614;DHT22;1821;50.936;6.854;2022-09-09T01:09:26;18.10;99.90
3614;DHT22;1821;50.936;6.854;2022-09-09T01:10:21;18.10;99.90
3614;DHT22;1821;50.936;6.854;2022-09-09T01:11:13;18.10;99.90
3614;DHT22;1821;50.936;6.854;2022-09-09T01:12:58;18.00;99.90
3614;DHT22;1821;50.936;6.854;2022-09-09T01:13:42;18.00;99.90
3614;DHT22;1821;50.936;6.854;2022-09-09T01:15:25;18.00;99.90
3614;DHT22;1821;50.936;6.854;2022-09-09T01:16:10;18.00;99.90
3614;DHT22;1821;50.936;6.854;2022-09-09T01:16:58;18.00;99.90
3614;DHT22;1821;50.936;6.854;2022-09-09T01:18:33;17.90;99.90
3614;DHT22;1821;50.936;6.854;2022-09-09T01:19:27;17.90;99.90
3614;DHT22;1821;50.936;6.854;2022-09-09T01:20:31;17.90;99.90
3614;DHT22;1821;50.936;6.854;2022-09-09T01:26:19;17.80;99.90
3614;DHT22;1821;50.936;6.854;2022-09-09T01:27:06;17.80;99.90
3614;DHT22;1821;50.936;6.854;2022-09-09T01:27:49;17.80;99.90
3614;DHT22;1821;50.936;6.854;2022-09-09T01:28:33;17.80;99.90
3614;DHT22;1821;50.936;6.854;2022-09-09T01:29:18;17.80;99.90
3614;DHT22;1821;50.936;6.854;2022-09-09T01:30:08;17.80;99.90
3614;DHT22;1821;50.936;6.854;2022-09-09T01:30:51;17.80;99.90
3614;DHT22;1821;50.936;6.854;2022-09-09T01:31:37;17.80;99.90
3614;DHT22;1821;50.936;6.854;2022-09-09T01:33:20;17.80;99.90
3614;DHT22;1821;50.936;6.854;2022-09-09T01:34:12;17.80;99.90
3614;DHT22;1821;50.936;6.854;2022-09-09T01:34:54;17.80;99.90
3614;DHT22;1821;50.936;6.854;2022-09-09T01:36:47;17.70;99.90
3614;DHT22;1821;50.936;6.854;2022-09-09T01:37:32;17.70;99.90
3614;DHT22;1821;50.936;6.854;2022-09-09T01:38:14;17.70;99.90
3614;DHT22;1821;50.936;6.854;2022-09-09T01:38:56;17.70;99.90
3614;DHT22;1821;50.936;6.854;2022-09-09T01:39:41;17.70;99.90
3614;DHT22;1821;50.936;6.854;2022-09-09T01:40:24;17.70;99.90
3614;DHT22;1821;50.936;6.854;2022-09-09T01:41:06;17.70;99.90
3614;DHT22;1821;50.936;6.854;2022-09-09T01:41:48;17.70;99.90
3614;DHT22;1821;50.936;6.854;2022-09-09T01:42:30;17.70;99.90
3614;DHT22;1821;50.936;6.854;2022-09-09T01:43:11;17.70;99.90
3614;DHT22;1821;50.936;6.854;2022-09-09T01:43:54;17.70;99.90
3614;DHT22;1821;50.936;6.854;2022-09-09T01:44:38;17.70;99.90
3614;DHT22;1821;50.936;6.854;2022-09-09T01:45:20;17.70;99.90
3614;DHT22;1821;50.936;6.854;2022-09-09T01:46:03;17.70;99.90
3614;DHT22;1821;50.936;6.854;2022-09-09T01:46:45;17.70;99.90
3614;DHT22;1821;50.936;6.854;2022-09-09T01:47:27;17.60;99.90
3614;DHT22;1821;50.936;6.854;2022-09-09T01:48:08;17.60;99.90
3614;DHT22;1821;50.936;6.854;2022-09-09T01:48:52;17.70;99.90
3614;DHT22;1821;50.936;6.854;2022-09-09T01:49:34;17.70;99.90
3614;DHT22;1821;50.936;6.854;2022-09-09T01:50:16;17.70;99.90
3614;DHT22;1821;50.936;6.854;2022-09-09T01:50:58;17.70;99.90
3614;DHT22;1821;50.936;6.854;2022-09-09T01:51:41;17.70;99.90
3614;DHT22;1821;50.936;6.854;2022-09-09T01:52:23;17.70;99.90
3614;DHT22;1821;50.936;6.854;2022-09-09T01:53:06;17.70;99.90
3614;DHT22;1821;50.936;6.854;2022-09-09T01:53:48;17.60;99.90
3614;DHT22;1821;50.936;6.854;2022-09-09T01:54:31;17.60;99.90
3614;DHT22;1821;50.936;6.854;2022-09-09T01:55:14;17.60;99.90
3614;DHT22;1821;50.936;6.854;2022-09-09T01:56:05;17.70;99.90
3614;DHT22;1821;50.936;6.854;2022-09-09T01:57:11;17.70;99.90
3614;DHT22;1821;50.936;6.854;2022-09-09T01:58:11;17.60;99.90
3614;DHT22;1821;50.936;6.854;2022-09-09T01:59:32;17.70;99.90
3614;DHT22;1821;50.936;6.854;2022-09-09T02:00:15;17.60;99.90
3614;DHT22;1821;50.936;6.854;2022-09-09T02:05:27;17.70;99.90
3614;DHT22;1821;50.936;6.854;2022-09-09T02:08:08;17.70;99.90
3614;DHT22;1821;50.936;6.854;2022-09-09T02:08:55;17.70;99.90
3614;DHT22;1821;50.936;6.854;2022-09-09T02:09:39;17.70;99.90
3614;DHT22;1821;50.936;6.854;2022-09-09T02:10:32;17.70;99.90
3614;DHT22;1821;50.936;6.854;2022-09-09T02:11:22;17.80;99.90
3614;DHT22;1821;50.936;6.854;2022-09-09T02:12:13;17.70;99.90
3614;DHT22;1821;50.936;6.854;2022-09-09T02:13:02;17.70;99.90
3614;DHT22;1821;50.936;6.854;2022-09-09T02:13:51;17.70;99.90
3614;DHT22;1821;50.936;6.854;2022-09-09T02:14:42;17.90;99.90
3614;DHT22;1821;50.936;6.854;2022-09-09T02:16:54;17.80;99.90
3614;DHT22;1821;50.936;6.854;2022-09-09T02:17:38;17.80;99.90
3614;DHT22;1821;50.936;6.854;2022-09-09T02:18:36;17.80;99.90
3614;DHT22;1821;50.936;6.854;2022-09-09T02:19:27;17.80;99.90
3614;DHT22;1821;50.936;6.854;2022-09-09T02:20:13;17.80;99.90
3614;DHT22;1821;50.936;6.854;2022-09-09T02:20:56;17.70;99.90
3614;DHT22;1821;50.936;6.854;2022-09-09T02:21:42;17.80;99.90
3614;DHT22;1821;50.936;6.854;2022-09-09T02:22:25;17.80;99.90
3614;DHT22;1821;50.936;6.854;2022-09-09T02:23:08;18.20;99.90
3614;DHT22;1821;50.936;6.854;2022-09-09T02:23:52;17.80;99.90
3614;DHT22;1821;50.936;6.854;2022-09-09T02:24:37;17.80;99.90
3614;DHT22;1821;50.936;6.854;2022-09-09T02:25:22;17.80;99.90
3614;DHT22;1821;50.936;6.854;2022-09-09T02:26:04;17.80;99.90
3614;DHT22;1821;50.936;6.854;2022-09-09T02:26:50;17.70;99.90
3614;DHT22;1821;50.936;6.854;2022-09-09T02:27:33;17.80;99.90
3614;DHT22;1821;50.936;6.854;2022-09-09T02:28:16;17.70;99.90
3614;DHT22;1821;50.936;6.854;2022-09-09T02:29:01;17.80;99.90
3614;DHT22;1821;50.936;6.854;2022-09-09T02:29:44;17.70;99.90
3614;DHT22;1821;50.936;6.854;2022-09-09T02:30:28;17.80;99.90
3614;DHT22;1821;50.936;6.854;2022-09-09T02:31:13;17.80;99.90
3614;DHT22;1821;50.936;6.854;2022-09-09T02:32:00;17.80;99.90
3614;DHT22;1821;50.936;6.854;2022-09-09T02:32:46;17.70;99.90
3614;DHT22;1821;50.936;6.854;2022-09-09T02:33:37;17.70;99.90
3614;DHT22;1821;50.936;6.854;2022-09-09T02:34:22;17.50;99.90
3614;DHT22;1821;50.936;6.854;2022-09-09T02:35:09;17.70;99.90
3614;DHT22;1821;50.936;6.854;2022-09-09T02:35:52;17.70;99.90
3614;DHT22;1821;50.936;6.854;2022-09-09T02:36:40;17.80;99.90
3614;DHT22;1821;50.936;6.854;2022-09-09T02:37:31;17.70;99.90
3614;DHT22;1821;50.936;6.854;2022-09-09T02:38:15;17.80;99.90
3614;DHT22;1821;50.936;6.854;2022-09-09T02:38:57;17.80;99.90
3614;DHT22;1821;50.936;6.854;2022-09-09T02:39:39;17.80;99.90
3614;DHT22;1821;50.936;6.854;2022-09-09T02:40:21;17.80;99.90
3614;DHT22;1821;50.936;6.854;2022-09-09T02:41:03;17.70;99.90
3614;DHT22;1821;50.936;6.854;2022-09-09T02:41:45;17.70;99.90
3614;DHT22;1821;50.936;6.854;2022-09-09T02:42:27;17.70;99.90
3614;DHT22;1821;50.936;6.854;2022-09-09T02:43:08;17.70;99.90
3614;DHT22;1821;50.936;6.854;2022-09-09T02:43:50;17.70;99.90
3614;DHT22;1821;50.936;6.854;2022-09-09T02:44:32;17.70;99.90
3614;DHT22;1821;50.936;6.854;2022-09-09T02:45:18;17.70;99.90
3614;DHT22;1821;50.936;6.854;2022-09-09T02:49:09;17.70;99.90
3614;DHT22;1821;50.936;6.854;2022-09-09T02:50:48;17.70;99.90
3614;DHT22;1821;50.936;6.854;2022-09-09T02:51:49;17.70;99.90
3614;DHT22;1821;50.936;6.854;2022-09-09T02:53:00;17.70;99.90
3614;DHT22;1821;50.936;6.854;2022-09-09T02:54:38;17.70;99.90
3614;DHT22;1821;50.936;6.854;2022-09-09T02:57:17;17.70;99.90
3614;DHT22;1821;50.936;6.854;2022-09-09T02:58:02;17.80;99.90
3614;DHT22;1821;50.936;6.854;2022-09-09T02:58:47;17.80;99.90
3614;DHT22;1821;50.936;6.854;2022-09-09T02:59:30;17.80;99.90
3614;DHT22;1821;50.936;6.854;2022-09-09T03:00:12;17.80;99.90
3614;DHT22;1821;50.936;6.854;2022-09-09T03:00:55;17.70;99.90
3614;DHT22;1821;50.936;6.854;2022-09-09T03:01:38;17.80;99.90
3614;DHT22;1821;50.936;6.854;2022-09-09T03:02:21;17.80;99.90
3614;DHT22;1821;50.936;6.854;2022-09-09T03:03:04;17.80;99.90
3614;DHT22;1821;50.936;6.854;2022-09-09T03:03:46;17.80;99.90
3614;DHT22;1821;50.936;6.854;2022-09-09T03:04:28;17.80;99.90
3614;DHT22;1821;50.936;6.854;2022-09-09T03:05:11;17.80;99.90
3614;DHT22;1821;50.936;6.854;2022-09-09T03:05:54;17.70;99.90
3614;DHT22;1821;50.936;6.854;2022-09-09T03:06:36;17.80;99.90
3614;DHT22;1821;50.936;6.854;2022-09-09T03:07:21;17.80;99.90
3614;DHT22;1821;50.936;6.854;2022-09-09T03:08:04;17.80;99.90
3614;DHT22;1821;50.936;6.854;2022-09-09T03:08:46;17.70;99.90
3614;DHT22;1821;50.936;6.854;2022-09-09T03:09:30;17.80;99.90
3614;DHT22;1821;50.936;6.854;2022-09-09T03:10:12;17.70;99.90
3614;DHT22;1821;50.936;6.854;2022-09-09T03:10:55;17.80;99.90
3614;DHT22;1821;50.936;6.854;2022-09-09T03:11:37;17.80;99.90
3614;DHT22;1821;50.936;6.854;2022-09-09T03:12:19;17.80;99.90
3614;DHT22;1821;50.936;6.854;2022-09-09T03:13:02;17.80;99.90
3614;DHT22;1821;50.936;6.854;2022-09-09T03:13:43;17.80;99.90
3614;DHT22;1821;50.936;6.854;2022-09-09T03:14:25;17.80;99.90
3614;DHT22;1821;50.936;6.854;2022-09-09T03:15:07;17.80;99.90
3614;DHT22;1821;50.936;6.854;2022-09-09T03:15:49;17.80;99.90
3614;DHT22;1821;50.936;6.854;2022-09-09T03:16:31;17.80;99.90
3614;DHT22;1821;50.936;6.854;2022-09-09T03:17:14;17.80;99.90
3614;DHT22;1821;50.936;6.854;2022-09-09T03:17:57;17.80;99.90
3614;DHT22;1821;50.936;6.854;2022-09-09T03:18:38;17.80;99.90
3614;DHT22;1821;50.936;6.854;2022-09-09T03:19:21;17.80;99.90
3614;DHT22;1821;50.936;6.854;2022-09-09T03:20:03;17.80;99.90
3614;DHT22;1821;50.936;6.854;2022-09-09T03:20:46;17.80;99.90
3614;DHT22;1821;50.936;6.854;2022-09-09T03:21:29;17.80;99.90
3614;DHT22;1821;50.936;6.854;2022-09-09T03:22:11;17.80;99.90
3614;DHT22;1821;50.936;6.854;2022-09-09T03:22:55;17.80;99.90
3614;DHT22;1821;50.936;6.854;2022-09-09T03:23:37;17.80;99.90
3614;DHT22;1821;50.936;6.854;2022-09-09T03:24:19;17.80;99.90
3614;DHT22;1821;50.936;6.854;2022-09-09T03:25:01;17.80;99.90
3614;DHT22;1821;50.936;6.854;2022-09-09T03:25:47;17.80;99.90
3614;DHT22;1821;50.936;6.854;2022-09-09T03:26:30;17.80;99.90
3614;DHT22;1821;50.936;6.854;2022-09-09T03:27:12;17.80;99.90
3614;DHT22;1821;50.936;6.854;2022-09-09T03:27:54;17.80;99.90
3614;DHT22;1821;50.936;6.854;2022-09-09T03:28:36;17.80;99.90
3614;DHT22;1821;50.936;6.854;2022-09-09T03:29:18;17.90;99.90
3614;DHT22;1821;50.936;6.854;2022-09-09T03:30:00;17.80;99.90
3614;DHT22;1821;50.936;6.854;2022-09-09T03:30:42;17.90;99.90
3614;DHT22;1821;50.936;6.854;2022-09-09T03:31:23;17.80;99.90
3614;DHT22;1821;50.936;6.854;2022-09-09T03:32:05;17.80;99.90
3614;DHT22;1821;50.936;6.854;2022-09-09T03:32:47;17.80;99.90
3614;DHT22;1821;50.936;6.854;2022-09-09T03:33:29;17.80;99.90
3614;DHT22;1821;50.936;6.854;2022-09-09T03:34:11;17.80;99.90
3614;DHT22;1821;50.936;6.854;2022-09-09T03:34:54;17.80;99.90
3614;DHT22;1821;50.936;6.854;2022-09-09T03:35:36;17.80;99.90
3614;DHT22;1821;50.936;6.854;2022-09-09T03:36:17;17.90;99.90
3614;DHT22;1821;50.936;6.854;2022-09-09T03:36:59;17.80;99.90
3614;DHT22;1821;50.936;6.854;2022-09-09T03:37:41;17.90;99.90
3614;DHT22;1821;50.936;6.854;2022-09-09T03:38:25;17.80;99.90
3614;DHT22;1821;50.936;6.854;2022-09-09T03:39:07;17.80;99.90
3614;DHT22;1821;50.936;6.854;2022-09-09T03:39:49;17.80;99.90
3614;DHT22;1821;50.936;6.854;2022-09-09T03:40:30;18.00;99.90
3614;DHT22;1821;50.936;6.854;2022-09-09T03:41:12;17.80;99.90
3614;DHT22;1821;50.936;6.854;2022-09-09T03:41:54;17.80;99.90
3614;DHT22;1821;50.936;6.854;2022-09-09T03:42:36;17.80;99.90
3614;DHT22;1821;50.936;6.854;2022-09-09T03:43:18;17.80;99.90
3614;DHT22;1821;50.936;6.854;2022-09-09T03:44:01;17.80;99.90
3614;DHT22;1821;50.936;6.854;2022-09-09T03:44:43;17.80;99.90
3614;DHT22;1821;50.936;6.854;2022-09-09T03:45:27;17.80;99.90
3614;DHT22;1821;50.936;6.854;2022-09-09T03:46:09;17.80;99.90
3614;DHT22;1821;50.936;6.854;2022-09-09T03:46:51;17.70;99.90
3614;DHT22;1821;50.936;6.854;2022-09-09T03:47:32;17.80;99.90
3614;DHT22;1821;50.936;6.854;2022-09-09T03:48:15;17.90;99.90
3614;DHT22;1821;50.936;6.854;2022-09-09T03:48:57;17.80;99.90
3614;DHT22;1821;50.936;6.854;2022-09-09T03:49:39;17.80;99.90
3614;DHT22;1821;50.936;6.854;2022-09-09T03:50:21;17.90;99.90
3614;DHT22;1821;50.936;6.854;2022-09-09T03:51:02;17.80;99.90
3614;DHT22;1821;50.936;6.854;2022-09-09T03:51:44;17.90;99.90
3614;DHT22;1821;50.936;6.854;2022-09-09T03:52:26;17.80;99.90
3614;DHT22;1821;50.936;6.854;2022-09-09T03:53:08;17.70;99.90
3614;DHT22;1821;50.936;6.854;2022-09-09T03:53:50;17.80;99.90
3614;DHT22;1821;50.936;6.854;2022-09-09T03:54:31;17.80;99.90
3614;DHT22;1821;50.936;6.854;2022-09-09T03:55:13;17.80;99.90
3614;DHT22;1821;50.936;6.854;2022-09-09T03:55:56;17.80;99.90
3614;DHT22;1821;50.936;6.854;2022-09-09T03:56:41;17.80;99.90
3614;DHT22;1821;50.936;6.854;2022-09-09T03:57:23;17.80;99.90
3614;DHT22;1821;50.936;6.854;2022-09-09T03:58:04;17.80;99.90
3614;DHT22;1821;50.936;6.854;2022-09-09T03:58:46;17.80;99.90
3614;DHT22;1821;50.936;6.854;2022-09-09T03:59:28;17.80;99.90
3614;DHT22;1821;50.936;6.854;2022-09-09T04:00:10;17.70;99.90
3614;DHT22;1821;50.936;6.854;2022-09-09T04:01:00;17.80;99.90
3614;DHT22;1821;50.936;6.854;2022-09-09T04:01:42;17.80;99.90
3614;DHT22;1821;50.936;6.854;2022-09-09T04:02:24;17.80;99.90
3614;DHT22;1821;50.936;6.854;2022-09-09T04:03:05;17.80;99.90
3614;DHT22;1821;50.936;6.854;2022-09-09T04:03:47;17.80;99.90
3614;DHT22;1821;50.936;6.854;2022-09-09T04:04:29;18.00;99.90
3614;DHT22;1821;50.936;6.854;2022-09-09T04:05:10;18.00;99.90
3614;DHT22;1821;50.936;6.854;2022-09-09T04:05:53;17.90;99.90
3614;DHT22;1821;50.936;6.854;2022-09-09T04:06:35;17.90;99.90
3614;DHT22;1821;50.936;6.854;2022-09-09T04:07:16;17.90;99.90
3614;DHT22;1821;50.936;6.854;2022-09-09T04:07:58;17.90;99.90
3614;DHT22;1821;50.936;6.854;2022-09-09T04:08:40;17.90;99.90
3614;DHT22;1821;50.936;6.854;2022-09-09T04:09:22;17.80;99.90
3614;DHT22;1821;50.936;6.854;2022-09-09T04:10:05;17.90;99.90
3614;DHT22;1821;50.936;6.854;2022-09-09T04:10:49;17.80;99.90
3614;DHT22;1821;50.936;6.854;2022-09-09T04:11:31;17.80;99.90
3614;DHT22;1821;50.936;6.854;2022-09-09T04:12:13;17.80;99.90
3614;DHT22;1821;50.936;6.854;2022-09-09T04:12:55;17.80;99.90
3614;DHT22;1821;50.936;6.854;2022-09-09T04:13:38;17.90;99.90
3614;DHT22;1821;50.936;6.854;2022-09-09T04:14:23;17.90;99.90
3614;DHT22;1821;50.936;6.854;2022-09-09T04:15:05;15.80;99.90
3614;DHT22;1821;50.936;6.854;2022-09-09T04:15:54;17.90;99.90
3614;DHT22;1821;50.936;6.854;2022-09-09T04:16:36;17.90;99.90
3614;DHT22;1821;50.936;6.854;2022-09-09T04:17:18;17.80;99.90
3614;DHT22;1821;50.936;6.854;2022-09-09T04:18:01;17.90;99.90
3614;DHT22;1821;50.936;6.854;2022-09-09T04:18:43;17.90;99.90
3614;DHT22;1821;50.936;6.854;2022-09-09T04:19:25;17.90;99.90
3614;DHT22;1821;50.936;6.854;2022-09-09T04:20:07;17.90;99.90
3614;DHT22;1821;50.936;6.854;2022-09-09T04:20:53;17.90;99.90
3614;DHT22;1821;50.936;6.854;2022-09-09T04:21:35;17.90;99.90
3614;DHT22;1821;50.936;6.854;2022-09-09T04:22:17;17.90;99.90
3614;DHT22;1821;50.936;6.854;2022-09-09T04:22:59;17.90;99.90
3614;DHT22;1821;50.936;6.854;2022-09-09T04:23:40;17.90;99.90
3614;DHT22;1821;50.936;6.854;2022-09-09T04:24:22;17.90;99.90
3614;DHT22;1821;50.936;6.854;2022-09-09T04:25:05;17.90;99.90
3614;DHT22;1821;50.936;6.854;2022-09-09T04:25:49;17.90;99.90
3614;DHT22;1821;50.936;6.854;2022-09-09T04:26:31;17.90;99.90
3614;DHT22;1821;50.936;6.854;2022-09-09T04:27:13;17.90;99.90
3614;DHT22;1821;50.936;6.854;2022-09-09T04:27:56;17.90;99.90
3614;DHT22;1821;50.936;6.854;2022-09-09T04:28:38;17.90;99.90
3614;DHT22;1821;50.936;6.854;2022-09-09T04:29:19;17.90;99.90
3614;DHT22;1821;50.936;6.854;2022-09-09T04:30:01;17.90;99.90
3614;DHT22;1821;50.936;6.854;2022-09-09T04:30:43;17.90;99.90
3614;DHT22;1821;50.936;6.854;2022-09-09T04:31:25;17.90;99.90
3614;DHT22;1821;50.936;6.854;2022-09-09T04:32:07;17.90;99.90
3614;DHT22;1821;50.936;6.854;2022-09-09T04:32:49;17.90;99.90
3614;DHT22;1821;50.936;6.854;2022-09-09T04:33:30;17.80;99.90
3614;DHT22;1821;50.936;6.854;2022-09-09T04:34:17;17.80;99.90
3614;DHT22;1821;50.936;6.854;2022-09-09T04:34:59;17.80;99.90
3614;DHT22;1821;50.936;6.854;2022-09-09T04:35:45;17.80;99.90
3614;DHT22;1821;50.936;6.854;2022-09-09T04:36:28;17.80;99.90
3614;DHT22;1821;50.936;6.854;2022-09-09T04:37:10;17.80;99.90
3614;DHT22;1821;50.936;6.854;2022-09-09T04:37:51;17.80;99.90
3614;DHT22;1821;50.936;6.854;2022-09-09T04:38:33;17.80;99.90
3614;DHT22;1821;50.936;6.854;2022-09-09T04:39:15;17.80;99.90
3614;DHT22;1821;50.936;6.854;2022-09-09T04:39:57;17.80;99.90
3614;DHT22;1821;50.936;6.854;2022-09-09T04:40:38;17.80;99.90
3614;DHT22;1821;50.936;6.854;2022-09-09T04:41:24;17.80;99.90
3614;DHT22;1821;50.936;6.854;2022-09-09T04:42:06;17.80;99.90
3614;DHT22;1821;50.936;6.854;2022-09-09T04:42:48;17.80;99.90
3614;DHT22;1821;50.936;6.854;2022-09-09T04:43:31;17.80;99.90
3614;DHT22;1821;50.936;6.854;2022-09-09T04:44:13;17.80;99.90
3614;DHT22;1821;50.936;6.854;2022-09-09T04:44:54;17.80;99.90
3614;DHT22;1821;50.936;6.854;2022-09-09T04:45:36;17.80;99.90
3614;DHT22;1821;50.936;6.854;2022-09-09T04:46:19;17.70;99.90
3614;DHT22;1821;50.936;6.854;2022-09-09T04:47:01;17.70;99.90
3614;DHT22;1821;50.936;6.854;2022-09-09T04:47:42;17.70;99.90
3614;DHT22;1821;50.936;6.854;2022-09-09T04:48:24;17.70;99.90
3614;DHT22;1821;50.936;6.854;2022-09-09T04:49:06;17.70;99.90
3614;DHT22;1821;50.936;6.854;2022-09-09T04:49:53;17.70;99.90
3614;DHT22;1821;50.936;6.854;2022-09-09T04:50:35;17.70;99.90
3614;DHT22;1821;50.936;6.854;2022-09-09T04:51:17;17.70;99.90
3614;DHT22;1821;50.936;6.854;2022-09-09T04:51:59;17.70;99.90
3614;DHT22;1821;50.936;6.854;2022-09-09T04:52:41;17.80;99.90
3614;DHT22;1821;50.936;6.854;2022-09-09T04:53:22;17.70;99.90
3614;DHT22;1821;50.936;6.854;2022-09-09T04:54:04;17.70;99.90
3614;DHT22;1821;50.936;6.854;2022-09-09T04:54:47;17.70;99.90
3614;DHT22;1821;50.936;6.854;2022-09-09T04:55:29;17.80;99.90
3614;DHT22;1821;50.936;6.854;2022-09-09T04:56:13;17.80;99.90
3614;DHT22;1821;50.936;6.854;2022-09-09T04:56:55;17.80;99.90
3614;DHT22;1821;50.936;6.854;2022-09-09T04:57:37;17.80;99.90
3614;DHT22;1821;50.936;6.854;2022-09-09T04:58:19;17.80;99.90
3614;DHT22;1821;50.936;6.854;2022-09-09T04:59:03;17.80;99.90
3614;DHT22;1821;50.936;6.854;2022-09-09T04:59:44;17.80;99.90
3614;DHT22;1821;50.936;6.854;2022-09-09T05:00:27;17.80;99.90
3614;DHT22;1821;50.936;6.854;2022-09-09T05:01:11;17.80;99.90
3614;DHT22;1821;50.936;6.854;2022-09-09T05:01:53;17.80;99.90
3614;DHT22;1821;50.936;6.854;2022-09-09T05:02:39;17.80;99.90
3614;DHT22;1821;50.936;6.854;2022-09-09T05:03:21;17.80;99.90
3614;DHT22;1821;50.936;6.854;2022-09-09T05:04:03;17.90;99.90
3614;DHT22;1821;50.936;6.854;2022-09-09T05:04:45;17.80;99.90
3614;DHT22;1821;50.936;6.854;2022-09-09T05:05:26;17.80;99.90
3614;DHT22;1821;50.936;6.854;2022-09-09T05:06:12;17.80;99.90
3614;DHT22;1821;50.936;6.854;2022-09-09T05:06:54;17.80;99.90
3614;DHT22;1821;50.936;6.854;2022-09-09T05:07:35;17.80;99.90
3614;DHT22;1821;50.936;6.854;2022-09-09T05:08:18;17.80;99.90
3614;DHT22;1821;50.936;6.854;2022-09-09T05:09:00;17.80;99.90
3614;DHT22;1821;50.936;6.854;2022-09-09T05:09:42;17.80;99.90
3614;DHT22;1821;50.936;6.854;2022-09-09T05:10:24;17.80;99.90
3614;DHT22;1821;50.936;6.854;2022-09-09T05:11:24;17.80;99.90
3614;DHT22;1821;50.936;6.854;2022-09-09T05:12:07;17.80;99.90
3614;DHT22;1821;50.936;6.854;2022-09-09T05:12:53;17.80;99.90
3614;DHT22;1821;50.936;6.854;2022-09-09T05:13:35;17.90;99.90
3614;DHT22;1821;50.936;6.854;2022-09-09T05:14:22;17.90;99.90
3614;DHT22;1821;50.936;6.854;2022-09-09T05:15:04;17.90;99.90
3614;DHT22;1821;50.936;6.854;2022-09-09T05:15:52;17.90;99.90
3614;DHT22;1821;50.936;6.854;2022-09-09T05:16:34;17.80;99.90
3614;DHT22;1821;50.936;6.854;2022-09-09T05:17:16;17.90;99.90
3614;DHT22;1821;50.936;6.854;2022-09-09T05:18:01;17.90;99.90
3614;DHT22;1821;50.936;6.854;2022-09-09T05:18:44;17.90;99.90
3614;DHT22;1821;50.936;6.854;2022-09-09T05:19:27;18.10;99.90
3614;DHT22;1821;50.936;6.854;2022-09-09T05:20:09;17.90;99.90
3614;DHT22;1821;50.936;6.854;2022-09-09T05:21:00;17.90;99.90
3614;DHT22;1821;50.936;6.854;2022-09-09T05:21:42;17.90;99.90
3614;DHT22;1821;50.936;6.854;2022-09-09T05:22:24;17.90;99.90
3614;DHT22;1821;50.936;6.854;2022-09-09T05:23:05;17.80;99.90
3614;DHT22;1821;50.936;6.854;2022-09-09T05:23:47;17.90;99.90
3614;DHT22;1821;50.936;6.854;2022-09-09T05:24:29;17.90;99.90
3614;DHT22;1821;50.936;6.854;2022-09-09T05:25:14;17.90;99.90
3614;DHT22;1821;50.936;6.854;2022-09-09T05:25:57;17.90;99.90
3614;DHT22;1821;50.936;6.854;2022-09-09T05:26:39;17.80;99.90
3614;DHT22;1821;50.936;6.854;2022-09-09T05:27:21;17.80;99.90
3614;DHT22;1821;50.936;6.854;2022-09-09T05:28:03;18.10;99.90
3614;DHT22;1821;50.936;6.854;2022-09-09T05:28:45;17.90;99.90
3614;DHT22;1821;50.936;6.854;2022-09-09T05:29:27;17.90;99.90
3614;DHT22;1821;50.936;6.854;2022-09-09T05:30:09;17.90;99.90
3614;DHT22;1821;50.936;6.854;2022-09-09T05:31:05;17.90;99.90
3614;DHT22;1821;50.936;6.854;2022-09-09T05:31:49;17.90;99.90
3614;DHT22;1821;50.936;6.854;2022-09-09T05:32:31;17.90;99.90
3614;DHT22;1821;50.936;6.854;2022-09-09T05:33:15;17.80;99.90
3614;DHT22;1821;50.936;6.854;2022-09-09T05:33:57;18.00;99.90
3614;DHT22;1821;50.936;6.854;2022-09-09T05:34:40;17.90;99.90
3614;DHT22;1821;50.936;6.854;2022-09-09T05:35:22;17.90;99.90
3614;DHT22;1821;50.936;6.854;2022-09-09T05:36:07;18.00;99.90
3614;DHT22;1821;50.936;6.854;2022-09-09T05:36:49;18.00;99.90
3614;DHT22;1821;50.936;6.854;2022-09-09T05:37:31;18.00;99.90
3614;DHT22;1821;50.936;6.854;2022-09-09T05:38:12;18.30;99.90
3614;DHT22;1821;50.936;6.854;2022-09-09T05:38:55;17.90;99.90
3614;DHT22;1821;50.936;6.854;2022-09-09T05:39:37;18.00;99.90